createdAt,value
2022-12-25T00:00:51.120Z,1.44
2022-12-25T00:01:53.924Z,1.43
2022-12-25T00:02:57.254Z,1.42
2022-12-25T00:04:00.494Z,1.39
2022-12-25T00:05:02.505Z,1.36
2022-12-25T00:06:05.782Z,1.33
2022-12-25T00:07:07.579Z,1.29
2022-12-25T00:08:10.974Z,1.25
2022-12-25T00:09:13.019Z,1.22
2022-12-25T00:10:15.726Z,1.17
2022-12-25T00:11:19.616Z,1.10
2022-12-25T00:12:22.495Z,1.02
2022-12-25T00:13:24.286Z,0.92
2022-12-25T00:14:27.124Z,0.83
2022-12-25T00:15:29.037Z,0.74
2022-12-25T00:16:32.107Z,0.66
2022-12-25T00:17:34.000Z,0.59
2022-12-25T00:18:38.511Z,0.52
2022-12-25T00:19:40.342Z,0.46
2022-12-25T00:20:43.114Z,0.39
2022-12-25T00:21:44.920Z,0.30
2022-12-25T00:22:47.636Z,0.23
2022-12-25T00:23:53.605Z,0.14
2022-12-25T00:24:56.364Z,0.04
2022-12-25T00:25:58.495Z,-0.01
2022-12-25T00:27:01.254Z,-0.06
2022-12-25T00:28:03.357Z,-0.12
2022-12-25T00:29:06.104Z,-0.16
2022-12-25T00:30:09.477Z,-0.23
2022-12-25T00:31:14.594Z,-0.28
2022-12-25T00:32:16.500Z,-0.29
2022-12-25T00:33:19.758Z,-0.30
2022-12-25T00:34:22.937Z,-0.27
2022-12-25T00:35:25.627Z,-0.28
2022-12-25T00:36:27.820Z,-0.28
2022-12-25T00:37:30.943Z,-0.26
2022-12-25T00:38:35.737Z,-0.26
2022-12-25T00:39:38.654Z,-0.26
2022-12-25T00:40:44.282Z,-0.27
2022-12-25T00:42:04.539Z,-0.28
2022-12-25T00:43:07.319Z,-0.31
2022-12-25T00:44:10.781Z,-0.31
2022-12-25T00:45:15.817Z,-0.29
2022-12-25T00:46:17.865Z,-0.26
2022-12-25T00:47:21.126Z,-0.22
2022-12-25T00:48:23.151Z,-0.18
2022-12-25T00:49:27.307Z,-0.14
2022-12-25T00:50:29.534Z,-0.11
2022-12-25T00:51:32.952Z,-0.07
2022-12-25T00:52:34.768Z,-0.07
2022-12-25T00:53:37.576Z,-0.07
2022-12-25T00:54:39.518Z,-0.05
2022-12-25T00:55:42.273Z,-0.04
2022-12-25T00:56:44.809Z,-0.02
2022-12-25T00:57:47.519Z,-0.01
2022-12-25T00:58:49.383Z,-0.01
2022-12-25T00:59:53.252Z,-0.03
2022-12-25T01:00:56.174Z,-0.02
2022-12-25T01:02:19.887Z,-0.01
2022-12-25T01:03:22.090Z,-0.02
2022-12-25T01:04:25.363Z,0.00
2022-12-25T01:05:28.510Z,0.02
2022-12-25T01:06:31.744Z,0.04
2022-12-25T01:07:33.553Z,0.07
2022-12-25T01:08:38.759Z,0.08
2022-12-25T01:09:59.296Z,0.07
2022-12-25T01:11:02.718Z,0.05
2022-12-25T01:12:04.630Z,0.04
2022-12-25T01:13:08.110Z,0.06
2022-12-25T01:14:10.340Z,0.05
2022-12-25T01:15:13.942Z,0.07
2022-12-25T01:16:16.451Z,0.10
2022-12-25T01:17:19.235Z,0.13
2022-12-25T01:18:23.509Z,0.17
2022-12-25T01:19:25.443Z,0.21
2022-12-25T01:20:29.659Z,0.25
2022-12-25T01:21:31.904Z,0.29
2022-12-25T01:22:34.730Z,0.33
2022-12-25T01:23:36.544Z,0.36
2022-12-25T01:24:39.291Z,0.42
2022-12-25T01:26:02.297Z,0.47
2022-12-25T01:27:05.996Z,0.51
2022-12-25T01:28:08.262Z,0.55
2022-12-25T01:29:11.460Z,0.59
2022-12-25T01:30:14.370Z,0.62
2022-12-25T01:31:19.326Z,0.66
2022-12-25T01:32:21.346Z,0.69
2022-12-25T01:33:24.121Z,0.70
2022-12-25T01:34:25.903Z,0.71
2022-12-25T01:35:30.094Z,0.71
2022-12-25T01:36:32.052Z,0.72
2022-12-25T01:37:34.839Z,0.72
2022-12-25T01:38:36.964Z,0.74
2022-12-25T01:39:39.758Z,0.74
2022-12-25T01:40:43.287Z,0.75
2022-12-25T01:41:46.213Z,0.76
2022-12-25T01:42:48.043Z,0.77
2022-12-25T01:44:05.925Z,0.77
2022-12-25T01:45:32.084Z,0.78
2022-12-25T01:46:35.843Z,0.77
2022-12-25T01:47:37.633Z,0.76
2022-12-25T01:48:40.767Z,0.80
2022-12-25T01:49:45.397Z,0.83
2022-12-25T01:50:55.569Z,0.85
2022-12-25T01:52:23.638Z,0.86
2022-12-25T01:53:27.711Z,0.85
2022-12-25T01:54:31.971Z,0.86
2022-12-25T01:55:35.541Z,0.85
2022-12-25T01:56:38.038Z,0.86
2022-12-25T01:57:41.691Z,0.86
2022-12-25T01:58:43.565Z,0.86
2022-12-25T01:59:47.162Z,0.86
2022-12-25T02:00:49.419Z,0.87
2022-12-25T02:01:52.556Z,0.90
2022-12-25T02:02:54.898Z,0.93
2022-12-25T02:04:02.263Z,0.96
2022-12-25T02:05:06.102Z,0.98
2022-12-25T02:06:10.511Z,1.01
2022-12-25T02:07:15.137Z,1.03
2022-12-25T02:08:20.195Z,1.03
2022-12-25T02:09:22.078Z,1.05
2022-12-25T02:10:25.040Z,1.07
2022-12-25T02:11:45.694Z,1.09
2022-12-25T02:12:48.780Z,1.09
2022-12-25T02:13:50.555Z,1.10
2022-12-25T02:15:04.870Z,1.11
2022-12-25T02:16:11.204Z,1.12
2022-12-25T02:17:20.565Z,1.14
2022-12-25T02:18:31.574Z,1.16
2022-12-25T02:19:47.883Z,1.16
2022-12-25T02:21:07.758Z,1.18
2022-12-25T02:22:16.834Z,1.22
2022-12-25T02:23:59.084Z,1.25
2022-12-25T02:25:09.322Z,1.27
2022-12-25T02:26:17.751Z,1.30
2022-12-25T02:27:29.059Z,1.31
2022-12-25T02:28:37.986Z,1.31
2022-12-25T02:29:48.346Z,1.30
2022-12-25T02:30:53.800Z,1.27
2022-12-25T02:31:59.532Z,1.26
2022-12-25T02:33:20.132Z,1.26
2022-12-25T02:34:28.879Z,1.21
2022-12-25T02:35:31.031Z,1.18
2022-12-25T02:36:39.168Z,1.17
2022-12-25T02:37:45.409Z,1.17
2022-12-25T02:39:04.596Z,1.19
2022-12-25T02:40:10.457Z,1.19
2022-12-25T02:41:15.314Z,1.20
2022-12-25T02:42:24.104Z,1.21
2022-12-25T02:43:47.918Z,1.23
2022-12-25T02:45:10.437Z,1.20
2022-12-25T02:46:32.771Z,1.16
2022-12-25T02:47:54.005Z,1.11
2022-12-25T02:49:17.288Z,1.10
2022-12-25T02:50:38.566Z,1.08
2022-12-25T02:52:01.943Z,1.11
2022-12-25T02:53:22.553Z,1.11
2022-12-25T02:54:46.693Z,1.10
2022-12-25T02:56:08.457Z,1.10
2022-12-25T02:57:30.703Z,1.09
2022-12-25T02:58:53.041Z,1.09
2022-12-25T03:00:16.451Z,1.09
2022-12-25T03:01:39.324Z,1.13
2022-12-25T03:03:01.264Z,1.12
2022-12-25T03:04:24.926Z,1.13
2022-12-25T03:05:45.586Z,1.12
2022-12-25T03:07:00.843Z,1.12
2022-12-25T03:08:04.957Z,1.12
2022-12-25T03:09:22.712Z,1.12
2022-12-25T03:10:56.254Z,1.09
2022-12-25T03:12:02.289Z,1.05
2022-12-25T03:13:26.711Z,1.01
2022-12-25T03:14:47.208Z,1.01
2022-12-25T03:16:09.106Z,0.98
2022-12-25T03:17:11.591Z,0.94
2022-12-25T03:18:16.414Z,0.94
2022-12-25T03:19:38.250Z,0.94
2022-12-25T03:20:59.048Z,0.91
2022-12-25T03:22:19.734Z,0.88
2022-12-25T03:23:41.986Z,0.85
2022-12-25T03:25:02.146Z,0.80
2022-12-25T03:26:23.055Z,0.79
2022-12-25T03:27:26.350Z,0.72
2022-12-25T03:28:28.129Z,0.68
2022-12-25T03:29:50.300Z,0.65
2022-12-25T03:31:14.651Z,0.58
2022-12-25T03:32:22.922Z,0.53
2022-12-25T03:33:46.255Z,0.51
2022-12-25T03:35:12.617Z,0.48
2022-12-25T03:36:21.718Z,0.44
2022-12-25T03:37:43.251Z,0.44
2022-12-25T03:39:08.149Z,0.40
2022-12-25T03:40:35.035Z,0.36
2022-12-25T03:41:59.641Z,0.34
2022-12-25T03:43:25.861Z,0.32
2022-12-25T03:45:01.769Z,0.34
2022-12-25T03:46:29.822Z,0.34
2022-12-25T03:47:48.980Z,0.35
2022-12-25T03:49:11.262Z,0.37
2022-12-25T03:50:35.408Z,0.39
2022-12-25T03:51:57.472Z,0.40
2022-12-25T03:53:20.114Z,0.45
2022-12-25T03:54:43.792Z,0.49
2022-12-25T03:56:00.595Z,0.50
2022-12-25T03:57:21.011Z,0.52
2022-12-25T03:58:43.915Z,0.51
2022-12-25T04:00:24.527Z,0.50
2022-12-25T04:01:46.079Z,0.51
2022-12-25T04:03:06.521Z,0.52
2022-12-25T04:04:26.821Z,0.52
2022-12-25T04:05:47.101Z,0.52
2022-12-25T04:07:07.700Z,0.52
2022-12-25T04:08:28.044Z,0.53
2022-12-25T04:09:53.736Z,0.54
2022-12-25T04:11:14.272Z,0.55
2022-12-25T04:12:34.997Z,0.57
2022-12-25T04:13:55.122Z,0.57
2022-12-25T04:15:23.755Z,0.56
2022-12-25T04:16:45.199Z,0.57
2022-12-25T04:18:06.005Z,0.56
2022-12-25T04:19:27.728Z,0.57
2022-12-25T04:20:48.224Z,0.59
2022-12-25T04:22:17.358Z,0.60
2022-12-25T04:23:38.037Z,0.62
2022-12-25T04:25:00.798Z,0.64
2022-12-25T04:26:21.395Z,0.67
2022-12-25T04:27:41.649Z,0.70
2022-12-25T04:29:01.919Z,0.73
2022-12-25T04:30:23.100Z,0.76
2022-12-25T04:31:43.829Z,0.77
2022-12-25T04:33:05.331Z,0.81
2022-12-25T04:34:25.540Z,0.83
2022-12-25T04:35:45.847Z,0.86
2022-12-25T04:36:49.031Z,0.90
2022-12-25T04:37:51.081Z,0.94
2022-12-25T04:38:53.877Z,0.98
2022-12-25T04:39:55.724Z,1.01
2022-12-25T04:40:58.491Z,1.05
2022-12-25T04:42:01.384Z,1.10
2022-12-25T04:43:04.241Z,1.13
2022-12-25T04:44:06.064Z,1.16
2022-12-25T04:45:10.094Z,1.20
2022-12-25T04:46:12.001Z,1.23
2022-12-25T04:47:14.795Z,1.25
2022-12-25T04:48:17.914Z,1.28
2022-12-25T04:49:20.746Z,1.31
2022-12-25T04:50:22.534Z,1.33
2022-12-25T04:51:26.638Z,1.36
2022-12-25T04:52:28.953Z,1.38
2022-12-25T04:53:31.705Z,1.42
2022-12-25T04:54:33.527Z,1.43
2022-12-25T04:55:36.321Z,1.45
2022-12-25T04:56:43.490Z,1.46
2022-12-25T04:57:48.608Z,1.47
2022-12-25T04:58:50.506Z,1.45
2022-12-25T04:59:53.359Z,1.44
2022-12-25T05:00:55.151Z,1.38
2022-12-25T05:01:58.117Z,1.36
2022-12-25T05:03:00.210Z,1.33
2022-12-25T05:04:04.736Z,1.31
2022-12-25T05:05:07.425Z,1.29
2022-12-25T05:06:10.244Z,1.28
2022-12-25T05:07:12.087Z,1.27
2022-12-25T05:08:15.155Z,1.26
2022-12-25T05:09:17.042Z,1.26
2022-12-25T05:10:20.031Z,1.25
2022-12-25T05:11:22.273Z,1.25
2022-12-25T05:12:25.101Z,1.25
2022-12-25T05:13:26.953Z,1.25
2022-12-25T05:14:30.022Z,1.26
2022-12-25T05:15:31.974Z,1.25
2022-12-25T05:16:34.813Z,1.26
2022-12-25T05:17:37.471Z,1.26
2022-12-25T05:18:40.227Z,1.25
2022-12-25T05:19:44.003Z,1.25
2022-12-25T05:20:52.942Z,1.25
2022-12-25T05:21:55.237Z,1.24
2022-12-25T05:22:57.988Z,1.22
2022-12-25T05:24:00.534Z,1.21
2022-12-25T05:25:03.707Z,1.21
2022-12-25T05:26:06.469Z,1.19
2022-12-25T05:27:09.285Z,1.18
2022-12-25T05:28:11.103Z,1.18
2022-12-25T05:29:13.822Z,1.16
2022-12-25T05:30:16.105Z,1.15
2022-12-25T05:31:19.294Z,1.15
2022-12-25T05:32:21.222Z,1.12
2022-12-25T05:33:24.492Z,1.11
2022-12-25T05:34:26.295Z,1.10
2022-12-25T05:35:30.384Z,1.05
2022-12-25T05:36:32.141Z,1.05
2022-12-25T05:37:34.927Z,1.04
2022-12-25T05:38:37.317Z,1.03
2022-12-25T05:39:40.373Z,1.01
2022-12-25T05:40:42.147Z,0.99
2022-12-25T05:41:44.929Z,0.99
2022-12-25T05:42:46.765Z,0.97
2022-12-25T05:43:49.551Z,0.96
2022-12-25T05:44:51.278Z,0.92
2022-12-25T05:45:54.159Z,0.91
2022-12-25T05:46:55.985Z,0.90
2022-12-25T05:47:58.808Z,0.89
2022-12-25T05:49:00.659Z,0.86
2022-12-25T05:50:03.504Z,0.85
2022-12-25T05:51:08.132Z,0.84
2022-12-25T05:52:11.091Z,0.83
2022-12-25T05:53:14.481Z,0.82
2022-12-25T05:54:17.877Z,0.82
2022-12-25T05:55:19.704Z,0.81
2022-12-25T05:56:22.477Z,0.81
2022-12-25T05:57:24.359Z,0.79
2022-12-25T05:58:27.179Z,0.78
2022-12-25T05:59:29.223Z,0.77
2022-12-25T06:00:32.169Z,0.76
2022-12-25T06:01:34.015Z,0.75
2022-12-25T06:02:37.416Z,0.74
2022-12-25T06:03:39.486Z,0.74
2022-12-25T06:04:42.510Z,0.72
2022-12-25T06:05:44.248Z,0.69
2022-12-25T06:06:48.356Z,0.70
2022-12-25T06:07:50.151Z,0.66
2022-12-25T06:08:54.649Z,0.64
2022-12-25T06:09:56.463Z,0.62
2022-12-25T06:10:59.223Z,0.60
2022-12-25T06:12:00.957Z,0.57
2022-12-25T06:13:03.744Z,0.50
2022-12-25T06:14:05.873Z,0.45
2022-12-25T06:15:10.008Z,0.39
2022-12-25T06:16:12.611Z,0.34
2022-12-25T06:17:15.480Z,0.26
2022-12-25T06:18:17.278Z,0.19
2022-12-25T06:19:20.062Z,0.13
2022-12-25T06:20:22.100Z,0.08
2022-12-25T06:21:25.059Z,0.02
2022-12-25T06:22:30.120Z,-0.01
2022-12-25T06:23:33.199Z,-0.02
2022-12-25T06:24:35.120Z,-0.04
2022-12-25T06:25:40.036Z,-0.04
2022-12-25T06:26:42.464Z,-0.05
2022-12-25T06:27:45.247Z,-0.04
2022-12-25T06:28:47.324Z,-0.05
2022-12-25T06:29:50.508Z,-0.03
2022-12-25T06:30:52.347Z,-0.03
2022-12-25T06:31:57.410Z,-0.00
2022-12-25T06:33:00.113Z,0.02
2022-12-25T06:34:02.902Z,0.04
2022-12-25T06:35:05.479Z,0.06
2022-12-25T06:36:08.973Z,0.07
2022-12-25T06:37:10.784Z,0.09
2022-12-25T06:38:14.842Z,0.08
2022-12-25T06:39:17.201Z,0.08
2022-12-25T06:40:20.248Z,0.06
2022-12-25T06:41:23.451Z,0.04
2022-12-25T06:42:26.252Z,0.03
2022-12-25T06:43:28.019Z,0.02
2022-12-25T06:44:30.752Z,0.02
2022-12-25T06:45:35.048Z,0.02
2022-12-25T06:46:38.043Z,0.02
2022-12-25T06:47:39.891Z,0.03
2022-12-25T06:48:47.846Z,0.03
2022-12-25T06:49:49.650Z,0.01
2022-12-25T06:50:52.367Z,0.00
2022-12-25T06:51:54.273Z,-0.03
2022-12-25T06:52:57.441Z,-0.01
2022-12-25T06:54:03.825Z,-0.01
2022-12-25T06:55:07.646Z,0.00
2022-12-25T06:56:15.183Z,0.01
2022-12-25T06:57:18.869Z,-0.01
2022-12-25T06:58:20.720Z,-0.01
2022-12-25T06:59:23.492Z,-0.01
2022-12-25T07:00:25.296Z,0.01
2022-12-25T07:01:30.667Z,0.03
2022-12-25T07:02:33.445Z,0.02
2022-12-25T07:03:36.268Z,-0.00
2022-12-25T07:04:40.247Z,-0.02
2022-12-25T07:05:44.849Z,-0.05
2022-12-25T07:06:46.748Z,-0.10
2022-12-25T07:07:49.849Z,-0.15
2022-12-25T07:08:51.614Z,-0.18
2022-12-25T07:09:55.755Z,-0.22
2022-12-25T07:10:57.559Z,-0.25
2022-12-25T07:12:04.375Z,-0.29
2022-12-25T07:13:06.248Z,-0.33
2022-12-25T07:14:09.914Z,-0.36
2022-12-25T07:15:11.700Z,-0.42
2022-12-25T07:16:14.977Z,-0.44
2022-12-25T07:17:17.726Z,-0.48
2022-12-25T07:18:20.591Z,-0.52
2022-12-25T07:19:22.637Z,-0.58
2022-12-25T07:20:26.055Z,-0.62
2022-12-25T07:21:27.811Z,-0.67
2022-12-25T07:22:30.991Z,-0.70
2022-12-25T07:23:32.973Z,-0.74
2022-12-25T07:24:35.768Z,-0.77
2022-12-25T07:25:38.963Z,-0.80
2022-12-25T07:26:41.800Z,-0.81
2022-12-25T07:27:43.592Z,-0.82
2022-12-25T07:28:46.387Z,-0.82
2022-12-25T07:29:48.193Z,-0.83
2022-12-25T07:30:50.984Z,-0.85
2022-12-25T07:31:53.920Z,-0.83
2022-12-25T07:32:56.681Z,-0.82
2022-12-25T07:33:59.572Z,-0.81
2022-12-25T07:35:01.346Z,-0.81
2022-12-25T07:36:05.422Z,-0.79
2022-12-25T07:37:07.319Z,-0.78
2022-12-25T07:38:10.173Z,-0.75
2022-12-25T07:39:12.583Z,-0.70
2022-12-25T07:40:15.619Z,-0.65
2022-12-25T07:41:18.770Z,-0.62
2022-12-25T07:42:25.144Z,-0.58
2022-12-25T07:43:29.499Z,-0.56
2022-12-25T07:44:32.260Z,-0.54
2022-12-25T07:45:34.153Z,-0.51
2022-12-25T07:46:36.891Z,-0.50
2022-12-25T07:47:38.640Z,-0.49
2022-12-25T07:48:41.461Z,-0.49
2022-12-25T07:49:43.280Z,-0.47
2022-12-25T07:50:46.040Z,-0.47
2022-12-25T07:51:47.921Z,-0.45
2022-12-25T07:52:50.677Z,-0.43
2022-12-25T07:53:55.196Z,-0.41
2022-12-25T07:54:57.011Z,-0.42
2022-12-25T07:56:01.216Z,-0.42
2022-12-25T07:57:04.412Z,-0.42
2022-12-25T07:58:07.357Z,-0.40
2022-12-25T07:59:09.228Z,-0.39
2022-12-25T08:00:13.236Z,-0.39
2022-12-25T08:01:34.921Z,-0.39
2022-12-25T08:02:37.445Z,-0.36
2022-12-25T08:03:40.723Z,-0.32
2022-12-25T08:04:42.791Z,-0.29
2022-12-25T08:05:45.716Z,-0.25
2022-12-25T08:06:47.496Z,-0.19
2022-12-25T08:07:57.323Z,-0.14
2022-12-25T08:09:04.458Z,-0.07
2022-12-25T08:10:08.239Z,-0.01
2022-12-25T08:11:10.439Z,0.04
2022-12-25T08:12:14.916Z,0.07
2022-12-25T08:13:16.757Z,0.11
2022-12-25T08:14:19.519Z,0.15
2022-12-25T08:15:21.885Z,0.20
2022-12-25T08:16:24.768Z,0.23
2022-12-25T08:17:26.618Z,0.28
2022-12-25T08:18:30.639Z,0.32
2022-12-25T08:19:32.653Z,0.37
2022-12-25T08:20:35.638Z,0.45
2022-12-25T08:21:39.291Z,0.51
2022-12-25T08:22:41.102Z,0.57
2022-12-25T08:23:45.914Z,0.62
2022-12-25T08:24:47.740Z,0.68
2022-12-25T08:25:50.552Z,0.72
2022-12-25T08:26:53.364Z,0.77
2022-12-25T08:27:56.700Z,0.80
2022-12-25T08:28:59.456Z,0.83
2022-12-25T08:30:01.293Z,0.86
2022-12-25T08:31:11.409Z,0.90
2022-12-25T08:32:13.184Z,0.92
2022-12-25T08:33:15.936Z,0.97
2022-12-25T08:34:19.291Z,1.01
2022-12-25T08:35:22.113Z,1.05
2022-12-25T08:36:24.511Z,1.09
2022-12-25T08:37:27.299Z,1.11
2022-12-25T08:38:29.088Z,1.16
2022-12-25T08:39:31.837Z,1.19
2022-12-25T08:40:33.736Z,1.23
2022-12-25T08:41:37.099Z,1.26
2022-12-25T08:42:38.915Z,1.29
2022-12-25T08:43:44.245Z,1.33
2022-12-25T08:44:46.017Z,1.38
2022-12-25T08:45:49.109Z,1.41
2022-12-25T08:46:51.064Z,1.46
2022-12-25T08:47:54.975Z,1.49
2022-12-25T08:48:57.075Z,1.53
2022-12-25T08:49:59.864Z,1.55
2022-12-25T08:51:02.299Z,1.59
2022-12-25T08:52:05.271Z,1.62
2022-12-25T08:53:07.077Z,1.64
2022-12-25T08:54:09.992Z,1.67
2022-12-25T08:55:12.043Z,1.70
2022-12-25T08:56:15.740Z,1.74
2022-12-25T08:57:17.607Z,1.77
2022-12-25T08:58:20.348Z,1.79
2022-12-25T08:59:24.915Z,1.83
2022-12-25T09:00:26.699Z,1.87
2022-12-25T09:01:29.573Z,1.94
2022-12-25T09:02:32.987Z,2.03
2022-12-25T09:03:35.006Z,2.10
2022-12-25T09:04:37.780Z,2.18
2022-12-25T09:05:39.726Z,2.27
2022-12-25T09:06:42.571Z,2.34
2022-12-25T09:07:44.499Z,2.45
2022-12-25T09:08:49.596Z,2.53
2022-12-25T09:09:52.324Z,2.63
2022-12-25T09:10:55.219Z,2.74
2022-12-25T09:11:57.102Z,2.83
2022-12-25T09:12:59.963Z,2.91
2022-12-25T09:14:02.840Z,2.97
2022-12-25T09:15:07.195Z,3.01
2022-12-25T09:16:11.877Z,3.04
2022-12-25T09:17:13.780Z,3.06
2022-12-25T09:18:16.541Z,3.06
2022-12-25T09:19:18.330Z,3.07
2022-12-25T09:20:21.255Z,3.08
2022-12-25T09:21:23.120Z,3.10
2022-12-25T09:22:25.882Z,3.11
2022-12-25T09:23:28.632Z,3.14
2022-12-25T09:24:31.478Z,3.17
2022-12-25T09:25:33.381Z,3.21
2022-12-25T09:26:36.116Z,3.27
2022-12-25T09:27:37.942Z,3.33
2022-12-25T09:28:46.580Z,3.38
2022-12-25T09:29:53.278Z,3.43
2022-12-25T09:30:56.556Z,3.45
2022-12-25T09:31:59.323Z,3.44
2022-12-25T09:33:01.091Z,3.44
2022-12-25T09:34:04.151Z,3.46
2022-12-25T09:35:06.565Z,3.48
2022-12-25T09:36:10.262Z,3.52
2022-12-25T09:37:12.035Z,3.56
2022-12-25T09:38:14.853Z,3.58
2022-12-25T09:39:17.604Z,3.60
2022-12-25T09:40:23.121Z,3.63
2022-12-25T09:41:30.471Z,3.67
2022-12-25T09:42:34.391Z,3.73
2022-12-25T09:43:41.028Z,3.78
2022-12-25T09:44:46.218Z,3.86
2022-12-25T09:45:48.098Z,3.93
2022-12-25T09:47:14.738Z,3.96
2022-12-25T09:48:16.622Z,3.98
2022-12-25T09:49:22.857Z,3.99
2022-12-25T09:50:32.422Z,3.96
2022-12-25T09:51:39.037Z,3.91
2022-12-25T09:52:44.200Z,3.87
2022-12-25T09:53:52.816Z,3.81
2022-12-25T09:54:57.802Z,3.76
2022-12-25T09:56:05.961Z,3.74
2022-12-25T09:57:11.152Z,3.73
2022-12-25T09:58:15.737Z,3.69
2022-12-25T09:59:24.143Z,3.69
2022-12-25T10:00:30.737Z,3.70
2022-12-25T10:01:37.630Z,3.69
2022-12-25T10:03:11.426Z,3.73
2022-12-25T10:04:29.411Z,3.75
2022-12-25T10:05:48.605Z,3.80
2022-12-25T10:07:02.691Z,3.84
2022-12-25T10:08:12.807Z,3.85
2022-12-25T10:09:36.267Z,3.86
2022-12-25T10:10:47.711Z,3.86
2022-12-25T10:12:06.182Z,3.88
2022-12-25T10:13:19.376Z,3.91
2022-12-25T10:14:25.961Z,3.95
2022-12-25T10:15:37.831Z,3.98
2022-12-25T10:16:48.984Z,4.01
2022-12-25T10:18:02.675Z,4.04
2022-12-25T10:19:14.585Z,4.02
2022-12-25T10:20:23.742Z,4.03
2022-12-25T10:21:27.969Z,3.99
2022-12-25T10:22:34.719Z,3.98
2022-12-25T10:23:39.354Z,3.98
2022-12-25T10:24:46.739Z,3.98
2022-12-25T10:25:49.508Z,3.96
2022-12-25T10:26:51.957Z,3.94
2022-12-25T10:27:57.431Z,3.96
2022-12-25T10:29:04.242Z,3.97
2022-12-25T10:30:15.589Z,3.98
2022-12-25T10:31:22.620Z,3.99
2022-12-25T10:32:24.558Z,4.03
2022-12-25T10:33:28.605Z,4.07
2022-12-25T10:34:32.614Z,4.08
2022-12-25T10:35:35.400Z,4.10
2022-12-25T10:36:37.229Z,4.12
2022-12-25T10:37:40.223Z,4.16
2022-12-25T10:38:42.007Z,4.19
2022-12-25T10:39:46.966Z,4.21
2022-12-25T10:41:00.195Z,4.24
2022-12-25T10:42:27.663Z,4.28
2022-12-25T10:43:32.876Z,4.30
2022-12-25T10:44:35.754Z,4.33
2022-12-25T10:45:45.185Z,4.36
2022-12-25T10:46:49.851Z,4.38
2022-12-25T10:48:07.155Z,4.42
2022-12-25T10:49:14.826Z,4.45
2022-12-25T10:50:24.196Z,4.46
2022-12-25T10:51:31.967Z,4.48
2022-12-25T10:52:33.819Z,4.49
2022-12-25T10:53:39.798Z,4.52
2022-12-25T10:54:41.613Z,4.55
2022-12-25T10:55:44.380Z,4.56
2022-12-25T10:56:54.314Z,4.59
2022-12-25T10:57:57.855Z,4.61
2022-12-25T10:59:07.069Z,4.63
2022-12-25T11:00:20.583Z,4.65
2022-12-25T11:01:28.867Z,4.68
2022-12-25T11:02:34.405Z,4.69
2022-12-25T11:03:40.135Z,4.71
2022-12-25T11:04:42.528Z,4.73
2022-12-25T11:05:51.236Z,4.77
2022-12-25T11:06:58.123Z,4.78
2022-12-25T11:08:02.326Z,4.81
2022-12-25T11:09:04.155Z,4.86
2022-12-25T11:10:21.747Z,4.88
2022-12-25T11:11:24.065Z,4.89
2022-12-25T11:12:30.719Z,4.90
2022-12-25T11:13:34.877Z,4.94
2022-12-25T11:14:38.376Z,4.96
2022-12-25T11:15:42.286Z,5.00
2022-12-25T11:16:45.861Z,5.01
2022-12-25T11:17:48.855Z,5.02
2022-12-25T11:18:53.539Z,5.05
2022-12-25T11:19:57.105Z,5.08
2022-12-25T11:21:03.120Z,5.07
2022-12-25T11:22:18.074Z,5.08
2022-12-25T11:23:21.878Z,5.09
2022-12-25T11:24:28.701Z,5.10
2022-12-25T11:25:30.489Z,5.10
2022-12-25T11:26:37.491Z,5.10
2022-12-25T11:27:39.308Z,5.12
2022-12-25T11:28:43.226Z,5.14
2022-12-25T11:29:48.307Z,5.16
2022-12-25T11:30:53.395Z,5.17
2022-12-25T11:31:58.151Z,5.18
2022-12-25T11:33:03.357Z,5.19
2022-12-25T11:34:07.854Z,5.21
2022-12-25T11:35:12.965Z,5.22
2022-12-25T11:36:21.602Z,5.23
2022-12-25T11:37:29.050Z,5.24
2022-12-25T11:38:32.205Z,5.27
2022-12-25T11:39:36.458Z,5.29
2022-12-25T11:40:43.897Z,5.31
2022-12-25T11:41:46.538Z,5.29
2022-12-25T11:42:51.385Z,5.27
2022-12-25T11:43:56.846Z,5.24
2022-12-25T11:45:03.673Z,5.22
2022-12-25T11:46:12.118Z,5.23
2022-12-25T11:47:18.863Z,5.24
2022-12-25T11:48:25.235Z,5.26
2022-12-25T11:49:28.626Z,5.27
2022-12-25T11:50:32.796Z,5.28
2022-12-25T11:51:40.179Z,5.30
2022-12-25T11:52:45.474Z,5.32
2022-12-25T11:53:51.705Z,5.34
2022-12-25T11:54:57.601Z,5.38
2022-12-25T11:56:02.858Z,5.40
2022-12-25T11:57:06.312Z,5.42
2022-12-25T11:58:15.273Z,5.44
2022-12-25T11:59:21.820Z,5.47
2022-12-25T12:00:24.816Z,5.47
2022-12-25T12:01:29.809Z,5.49
2022-12-25T12:02:36.573Z,5.52
2022-12-25T12:03:41.004Z,5.58
2022-12-25T12:04:45.321Z,5.66
2022-12-25T12:05:52.403Z,5.75
2022-12-25T12:06:57.905Z,5.84
2022-12-25T12:08:01.916Z,5.94
2022-12-25T12:09:23.821Z,6.03
2022-12-25T12:10:36.647Z,6.11
2022-12-25T12:11:41.507Z,6.15
2022-12-25T12:12:52.475Z,6.23
2022-12-25T12:14:03.375Z,6.31
2022-12-25T12:15:15.004Z,6.40
2022-12-25T12:16:17.869Z,6.43
2022-12-25T12:17:19.884Z,6.48
2022-12-25T12:18:24.166Z,6.54
2022-12-25T12:19:28.007Z,6.61
2022-12-25T12:20:33.295Z,6.65
2022-12-25T12:21:35.096Z,6.69
2022-12-25T12:22:39.314Z,6.72
2022-12-25T12:23:49.147Z,6.72
2022-12-25T12:24:56.174Z,6.76
2022-12-25T12:25:58.188Z,6.77
2022-12-25T12:27:02.601Z,6.78
2022-12-25T12:28:05.818Z,6.80
2022-12-25T12:29:09.772Z,6.80
2022-12-25T12:30:23.812Z,6.77
2022-12-25T12:31:37.963Z,6.71
2022-12-25T12:32:41.605Z,6.65
2022-12-25T12:33:51.727Z,6.63
2022-12-25T12:34:55.085Z,6.61
2022-12-25T12:35:58.532Z,6.61
2022-12-25T12:37:02.491Z,6.63
2022-12-25T12:38:08.804Z,6.64
2022-12-25T12:39:21.697Z,6.64
2022-12-25T12:40:28.495Z,6.63
2022-12-25T12:41:43.036Z,6.63
2022-12-25T12:42:50.726Z,6.68
2022-12-25T12:43:55.947Z,6.70
2022-12-25T12:45:07.645Z,6.74
2022-12-25T12:46:17.169Z,6.76
2022-12-25T12:47:30.293Z,6.79
2022-12-25T12:48:40.548Z,6.79
2022-12-25T12:49:42.440Z,6.79
2022-12-25T12:50:45.272Z,6.78
2022-12-25T12:51:47.930Z,6.77
2022-12-25T12:52:50.691Z,6.76
2022-12-25T12:54:06.757Z,6.77
2022-12-25T12:55:13.412Z,6.75
2022-12-25T12:56:18.905Z,6.77
2022-12-25T12:57:25.868Z,6.86
2022-12-25T12:58:33.080Z,6.98
2022-12-25T12:59:38.982Z,7.07
2022-12-25T13:00:47.931Z,7.16
2022-12-25T13:01:59.698Z,7.22
2022-12-25T13:03:13.760Z,7.26
2022-12-25T13:04:32.341Z,7.27
2022-12-25T13:05:40.351Z,7.31
2022-12-25T13:06:45.105Z,7.36
2022-12-25T13:07:54.916Z,7.46
2022-12-25T13:09:06.011Z,7.58
2022-12-25T13:10:15.079Z,7.79
2022-12-25T13:11:20.090Z,8.00
2022-12-25T13:12:23.498Z,8.14
2022-12-25T13:13:29.129Z,8.28
2022-12-25T13:14:32.080Z,8.41
2022-12-25T13:15:35.143Z,8.52
2022-12-25T13:16:40.216Z,8.54
2022-12-25T13:17:43.761Z,8.51
2022-12-25T13:18:47.042Z,8.35
2022-12-25T13:19:51.091Z,8.15
2022-12-25T13:20:56.132Z,8.00
2022-12-25T13:21:59.144Z,7.84
2022-12-25T13:23:01.858Z,7.74
2022-12-25T13:24:08.964Z,7.68
2022-12-25T13:25:19.126Z,7.80
2022-12-25T13:26:20.893Z,7.99
2022-12-25T13:27:25.104Z,8.11
2022-12-25T13:28:28.365Z,8.19
2022-12-25T13:29:31.845Z,8.18
2022-12-25T13:30:34.181Z,8.13
2022-12-25T13:31:37.062Z,8.13
2022-12-25T13:32:38.921Z,8.16
2022-12-25T13:33:42.379Z,8.19
2022-12-25T13:34:44.556Z,8.21
2022-12-25T13:35:47.932Z,8.32
2022-12-25T13:36:49.832Z,8.35
2022-12-25T13:37:54.723Z,8.34
2022-12-25T13:38:57.965Z,8.40
2022-12-25T13:40:05.144Z,8.46
2022-12-25T13:41:25.311Z,8.47
2022-12-25T13:42:29.750Z,8.34
2022-12-25T13:43:31.658Z,8.25
2022-12-25T13:44:41.688Z,8.20
2022-12-25T13:45:55.396Z,8.27
2022-12-25T13:47:08.301Z,8.32
2022-12-25T13:48:15.975Z,8.29
2022-12-25T13:49:19.618Z,8.28
2022-12-25T13:50:24.739Z,8.26
2022-12-25T13:51:27.330Z,8.27
2022-12-25T13:52:34.341Z,8.23
2022-12-25T13:53:36.116Z,8.21
2022-12-25T13:54:38.952Z,8.15
2022-12-25T13:55:42.609Z,8.05
2022-12-25T13:56:48.140Z,7.96
2022-12-25T13:57:52.626Z,7.87
2022-12-25T13:58:55.397Z,7.76
2022-12-25T13:59:57.739Z,7.63
2022-12-25T14:01:01.867Z,7.50
2022-12-25T14:02:03.865Z,7.35
2022-12-25T14:03:10.270Z,7.18
2022-12-25T14:04:16.006Z,6.97
2022-12-25T14:05:25.783Z,6.76
2022-12-25T14:06:29.456Z,6.55
2022-12-25T14:07:34.249Z,6.36
2022-12-25T14:08:36.131Z,6.18
2022-12-25T14:09:39.615Z,6.00
2022-12-25T14:10:46.395Z,5.81
2022-12-25T14:11:51.574Z,5.65
2022-12-25T14:12:55.073Z,5.47
2022-12-25T14:13:59.630Z,5.31
2022-12-25T14:15:01.629Z,5.17
2022-12-25T14:16:05.781Z,5.02
2022-12-25T14:17:09.428Z,4.86
2022-12-25T14:18:15.300Z,4.72
2022-12-25T14:19:25.043Z,4.56
2022-12-25T14:20:30.248Z,4.41
2022-12-25T14:21:33.980Z,4.24
2022-12-25T14:22:38.484Z,4.08
2022-12-25T14:23:43.088Z,3.91
2022-12-25T14:24:45.839Z,3.76
2022-12-25T14:25:49.031Z,3.64
2022-12-25T14:26:58.299Z,3.52
2022-12-25T14:28:01.245Z,3.42
2022-12-25T14:29:15.566Z,3.30
2022-12-25T14:30:19.468Z,3.17
2022-12-25T14:31:22.847Z,3.06
2022-12-25T14:32:26.759Z,2.93
2022-12-25T14:33:32.451Z,2.80
2022-12-25T14:34:34.566Z,2.67
2022-12-25T14:35:37.306Z,2.56
2022-12-25T14:36:57.775Z,2.40
2022-12-25T14:38:01.316Z,2.29
2022-12-25T14:39:04.760Z,2.18
2022-12-25T14:40:22.293Z,2.06
2022-12-25T14:41:37.591Z,1.94
2022-12-25T14:42:40.407Z,1.85